Time;durP1;ratioP1;P1;durP2;ratioP2;P2;SDS_P1;SDS_P2;PMS_P1;PMS_P2;Temp;Humidity;BMP_temperature;BMP_pressure;BME280_temperature;BME280_humidity;BME280_pressure;Samples;Min_cycle;Max_cycle;Signal;HPM_P1;HPM_P2
2023/04/04 00:01:24;;;;;;;;;;;13.50;67.70;;;;;;5006627;27;95332;-73
2023/04/04 00:03:50;;;;;;;;;;;13.50;68.10;;;;;;4991389;27;99390;-73
2023/04/04 00:06:19;;;;;;;;;;;13.50;67.90;;;;;;5010212;27;94259;-71
2023/04/04 00:08:45;;;;;;;;;;;13.40;68.00;;;;;;4983680;27;94971;-71
2023/04/04 00:11:12;;;;;;;;;;;13.40;67.80;;;;;;5009339;27;95266;-70
2023/04/04 00:13:38;;;;;;;;;;;13.50;67.80;;;;;;5010609;27;94820;-70
2023/04/04 00:16:04;;;;;;;;;;;13.50;67.80;;;;;;5003656;27;95925;-73
2023/04/04 00:18:30;;;;;;;;;;;13.50;67.70;;;;;;4991899;27;93555;-73
2023/04/04 00:20:55;;;;;;;;;;;13.40;67.60;;;;;;5009331;27;94312;-71
2023/04/04 00:23:21;;;;;;;;;;;13.40;67.60;;;;;;5004241;27;94936;-74
2023/04/04 00:25:51;;;;;;;;;;;13.40;67.80;;;;;;4993637;28;94929;-71
2023/04/04 00:28:20;;;;;;;;;;;13.30;67.80;;;;;;5006364;27;95809;-73
2023/04/04 00:30:45;;;;;;;;;;;13.40;67.90;;;;;;5008395;22;94422;-60
2023/04/04 00:33:11;;;;;;;;;;;13.30;67.90;;;;;;4968788;22;95031;-71
2023/04/04 00:35:37;;;;;;;;;;;13.30;67.80;;;;;;4968032;28;94111;-71
2023/04/04 00:38:02;;;;;;;;;;;13.40;67.60;;;;;;4957278;28;93935;-73
2023/04/04 00:40:28;;;;;;;;;;;13.40;67.60;;;;;;4963860;28;94741;-69
2023/04/04 00:42:54;;;;;;;;;;;13.30;67.40;;;;;;4975410;28;93447;-73
2023/04/04 00:45:19;;;;;;;;;;;13.30;67.60;;;;;;4971421;28;94366;-72
2023/04/04 00:47:45;;;;;;;;;;;13.30;67.70;;;;;;4970475;28;94266;-72
2023/04/04 00:50:11;;;;;;;;;;;13.30;67.70;;;;;;4965005;28;95619;-74
2023/04/04 00:52:36;;;;;;;;;;;13.20;67.50;;;;;;4959819;28;95373;-72
2023/04/04 00:55:02;;;;;;;;;;;13.30;67.70;;;;;;4962413;28;94624;-74
2023/04/04 00:57:28;;;;;;;;;;;13.30;67.60;;;;;;4955699;28;96206;-73
2023/04/04 00:59:56;;;;;;;;;;;13.20;67.60;;;;;;4971463;28;95199;-72
2023/04/04 01:02:22;;;;;;;;;;;13.20;67.40;;;;;;4957339;28;98995;-73
2023/04/04 01:04:48;;;;;;;;;;;13.20;67.50;;;;;;4955984;28;93833;-72
2023/04/04 01:07:13;;;;;;;;;;;13.20;67.40;;;;;;4973379;28;93574;-69
2023/04/04 01:09:39;;;;;;;;;;;13.20;67.30;;;;;;4974431;28;95306;-74
2023/04/04 01:12:05;;;;;;;;;;;13.20;67.50;;;;;;4970830;28;96328;-70
2023/04/04 01:14:31;;;;;;;;;;;13.20;67.50;;;;;;4951589;28;95203;-70
2023/04/04 01:16:58;;;;;;;;;;;13.20;67.20;;;;;;4949134;28;96212;-72
2023/04/04 01:19:29;;;;;;;;;;;13.20;67.40;;;;;;4976682;23;94564;-56
2023/04/04 01:21:55;;;;;;;;;;;13.10;67.50;;;;;;4989853;22;94621;-73
2023/04/04 01:24:21;;;;;;;;;;;13.10;67.50;;;;;;5017644;27;98638;-74
2023/04/04 01:26:49;;;;;;;;;;;13.10;67.50;;;;;;5027358;27;98769;-73
2023/04/04 01:29:14;;;;;;;;;;;13.10;67.50;;;;;;5018737;27;93981;-73
2023/04/04 01:31:48;;;;;;;;;;;13.10;67.30;;;;;;5022662;27;93753;-73
2023/04/04 01:34:27;;;;;;;;;;;13.10;67.90;;;;;;5025891;27;94352;-73
2023/04/04 01:37:00;;;;;;;;;;;13.10;67.30;;;;;;5032047;27;95971;-71
2023/04/04 01:39:28;;;;;;;;;;;13.00;67.30;;;;;;5016332;27;95593;-74
2023/04/04 01:41:55;;;;;;;;;;;13.00;67.30;;;;;;5012768;27;96306;-71
2023/04/04 01:44:21;;;;;;;;;;;13.00;67.40;;;;;;5030297;27;93977;-73
2023/04/04 01:46:51;;;;;;;;;;;13.00;67.30;;;;;;5029726;27;94003;-72
2023/04/04 01:49:17;;;;;;;;;;;13.00;67.10;;;;;;5026777;27;93766;-73
2023/04/04 01:51:43;;;;;;;;;;;13.00;67.40;;;;;;5029174;27;94305;-73
2023/04/04 01:54:09;;;;;;;;;;;13.00;67.20;;;;;;5026051;27;94265;-72
2023/04/04 01:56:35;;;;;;;;;;;13.00;67.10;;;;;;5022041;27;97574;-73
2023/04/04 01:59:00;;;;;;;;;;;13.00;67.30;;;;;;5006768;27;97266;-73
2023/04/04 02:01:26;;;;;;;;;;;13.00;67.20;;;;;;5028371;27;94304;-74
2023/04/04 02:03:51;;;;;;;;;;;13.00;67.10;;;;;;5025283;27;95016;-74
2023/04/04 02:06:17;;;;;;;;;;;12.90;67.20;;;;;;5022685;27;94585;-75
2023/04/04 02:08:42;;;;;;;;;;;12.90;67.30;;;;;;5022621;27;93901;-71
2023/04/04 02:11:08;;;;;;;;;;;12.90;67.20;;;;;;5021626;27;93817;-70
2023/04/04 02:13:33;;;;;;;;;;;12.90;67.20;;;;;;5029765;27;95177;-71
2023/04/04 02:15:59;;;;;;;;;;;12.90;67.00;;;;;;5010370;27;94957;-71
2023/04/04 02:18:25;;;;;;;;;;;12.90;67.00;;;;;;5017257;27;97075;-74
2023/04/04 02:20:54;;;;;;;;;;;12.90;66.70;;;;;;5034560;27;93247;-70
2023/04/04 02:23:20;;;;;;;;;;;12.90;67.00;;;;;;5026785;27;94365;-73
2023/04/04 02:25:48;;;;;;;;;;;12.80;67.00;;;;;;5029082;27;94703;-71
2023/04/04 02:28:14;;;;;;;;;;;12.80;67.00;;;;;;5027329;27;94935;-73
2023/04/04 02:30:39;;;;;;;;;;;12.80;66.80;;;;;;5031292;27;94877;-73
2023/04/04 02:33:05;;;;;;;;;;;12.80;67.00;;;;;;5032862;27;93550;-72
2023/04/04 02:35:31;;;;;;;;;;;12.80;67.10;;;;;;5031590;27;94284;-73
2023/04/04 02:37:56;;;;;;;;;;;12.80;66.80;;;;;;5029100;27;94241;-73
2023/04/04 02:40:22;;;;;;;;;;;12.80;66.80;;;;;;5028499;27;93893;-73
2023/04/04 02:42:47;;;;;;;;;;;12.80;66.70;;;;;;5029620;27;94177;-72
2023/04/04 02:45:13;;;;;;;;;;;12.70;66.60;;;;;;5032190;27;93401;-70
2023/04/04 02:47:39;;;;;;;;;;;12.80;66.80;;;;;;5027985;27;94255;-72
2023/04/04 02:50:05;;;;;;;;;;;12.80;66.50;;;;;;5033728;27;94038;-73
2023/04/04 02:52:31;;;;;;;;;;;12.80;66.50;;;;;;5025436;27;95472;-73
2023/04/04 02:54:57;;;;;;;;;;;12.70;66.60;;;;;;5029895;27;94614;-70
2023/04/04 02:57:22;;;;;;;;;;;12.70;66.70;;;;;;5029226;27;96843;-72
2023/04/04 02:59:48;;;;;;;;;;;12.70;66.70;;;;;;5029233;27;99089;-73
2023/04/04 03:02:13;;;;;;;;;;;12.70;66.50;;;;;;5028511;27;94218;-71
2023/04/04 03:04:39;;;;;;;;;;;12.70;66.60;;;;;;5033658;27;93876;-73
2023/04/04 03:07:05;;;;;;;;;;;12.70;66.50;;;;;;5027673;27;94217;-73
2023/04/04 03:09:30;;;;;;;;;;;12.70;66.40;;;;;;5033200;27;93786;-71
2023/04/04 03:11:56;;;;;;;;;;;12.60;66.40;;;;;;5031580;27;95301;-71
2023/04/04 03:14:21;;;;;;;;;;;12.60;66.50;;;;;;5027226;27;95621;-73
2023/04/04 03:16:48;;;;;;;;;;;12.60;66.30;;;;;;5030726;27;95417;-74
2023/04/04 03:19:14;;;;;;;;;;;12.60;66.30;;;;;;5025559;27;95145;-69
2023/04/04 03:21:40;;;;;;;;;;;12.60;66.30;;;;;;5030752;27;94547;-71
2023/04/04 03:24:05;;;;;;;;;;;12.60;66.30;;;;;;5033373;27;94496;-73
2023/04/04 03:26:31;;;;;;;;;;;12.60;66.60;;;;;;5026007;27;94807;-72
2023/04/04 03:28:57;;;;;;;;;;;12.50;66.60;;;;;;5027179;27;99366;-72
2023/04/04 03:31:22;;;;;;;;;;;12.60;66.30;;;;;;5027527;27;93675;-73
2023/04/04 03:33:48;;;;;;;;;;;12.60;66.30;;;;;;5026991;27;93699;-70
2023/04/04 03:36:13;;;;;;;;;;;12.60;66.30;;;;;;5020850;27;94282;-72
2023/04/04 03:38:39;;;;;;;;;;;12.50;66.30;;;;;;5024284;27;95424;-72
2023/04/04 03:41:04;;;;;;;;;;;12.50;66.20;;;;;;5023360;27;95386;-74
2023/04/04 03:43:31;;;;;;;;;;;12.60;66.30;;;;;;5023178;27;94805;-73
2023/04/04 03:46:00;;;;;;;;;;;12.50;66.10;;;;;;5031372;27;94901;-73
2023/04/04 03:48:26;;;;;;;;;;;12.50;66.30;;;;;;5027748;27;94184;-73
2023/04/04 03:50:51;;;;;;;;;;;12.50;66.10;;;;;;5028921;27;98292;-70
2023/04/04 03:53:17;;;;;;;;;;;12.50;66.20;;;;;;5028332;27;94545;-73
2023/04/04 03:55:42;;;;;;;;;;;12.50;66.10;;;;;;5029679;27;94496;-71
2023/04/04 03:58:08;;;;;;;;;;;12.50;66.10;;;;;;5032348;27;96333;-73
2023/04/04 04:00:34;;;;;;;;;;;12.50;66.00;;;;;;5028630;22;98822;-69
2023/04/04 04:02:59;;;;;;;;;;;12.40;66.00;;;;;;4945903;28;95435;-71
2023/04/04 04:05:25;;;;;;;;;;;12.40;66.00;;;;;;4955330;28;95823;-72
2023/04/04 04:07:51;;;;;;;;;;;12.50;66.20;;;;;;4970101;28;94679;-71
2023/04/04 04:10:17;;;;;;;;;;;12.50;65.80;;;;;;4971746;28;94777;-71
2023/04/04 04:12:42;;;;;;;;;;;12.50;65.90;;;;;;4971636;28;94555;-71
2023/04/04 04:15:08;;;;;;;;;;;12.40;66.20;;;;;;4954163;28;96045;-74
2023/04/04 04:17:37;;;;;;;;;;;12.40;66.00;;;;;;4970992;28;99149;-72
2023/04/04 04:20:03;;;;;;;;;;;12.40;66.00;;;;;;4979899;28;94656;-71
2023/04/04 04:22:29;;;;;;;;;;;12.40;66.40;;;;;;4979909;28;94720;-73
2023/04/04 04:24:54;;;;;;;;;;;12.40;66.40;;;;;;4980876;28;95560;-73
2023/04/04 04:27:20;;;;;;;;;;;12.50;66.50;;;;;;4981232;28;94646;-74
2023/04/04 04:29:45;;;;;;;;;;;12.40;66.50;;;;;;4981006;28;96363;-73
2023/04/04 04:32:14;;;;;;;;;;;12.30;66.40;;;;;;4977945;28;94868;-74
2023/04/04 04:34:39;;;;;;;;;;;12.40;66.70;;;;;;4963212;28;96591;-73
2023/04/04 04:37:05;;;;;;;;;;;12.40;66.50;;;;;;4977830;28;94816;-73
2023/04/04 04:39:30;;;;;;;;;;;12.40;66.20;;;;;;4982686;28;95591;-74
2023/04/04 04:41:56;;;;;;;;;;;12.30;66.40;;;;;;4979164;28;94916;-73
2023/04/04 04:44:22;;;;;;;;;;;12.40;66.20;;;;;;4982021;28;95994;-74
2023/04/04 04:46:47;;;;;;;;;;;12.40;66.30;;;;;;4986529;28;94201;-74
2023/04/04 04:49:13;;;;;;;;;;;12.30;66.20;;;;;;4983002;28;95030;-73
2023/04/04 04:51:39;;;;;;;;;;;12.30;66.40;;;;;;4992006;22;94789;-61
2023/04/04 04:54:04;;;;;;;;;;;12.30;66.40;;;;;;4977187;22;95841;-69
2023/04/04 04:56:30;;;;;;;;;;;12.30;66.20;;;;;;4981714;28;94732;-71
2023/04/04 04:58:56;;;;;;;;;;;12.30;65.90;;;;;;4994526;28;94756;-73
2023/04/04 05:01:21;;;;;;;;;;;12.30;66.00;;;;;;4989118;28;94480;-73
2023/04/04 05:03:47;;;;;;;;;;;12.20;66.20;;;;;;4981171;28;100135;-70
2023/04/04 05:06:12;;;;;;;;;;;12.30;66.10;;;;;;4971219;28;94107;-70
2023/04/04 05:08:38;;;;;;;;;;;12.30;66.40;;;;;;4986616;28;95088;-75
2023/04/04 05:11:03;;;;;;;;;;;12.30;66.20;;;;;;4995894;28;95311;-73
2023/04/04 05:13:29;;;;;;;;;;;12.30;66.50;;;;;;4998615;28;94515;-71
2023/04/04 05:15:55;;;;;;;;;;;12.20;66.50;;;;;;4983305;28;94390;-73
2023/04/04 05:18:20;;;;;;;;;;;12.30;66.40;;;;;;4998437;28;96501;-73
2023/04/04 05:20:50;;;;;;;;;;;12.20;66.40;;;;;;5002185;28;94650;-72
2023/04/04 05:23:15;;;;;;;;;;;12.30;67.00;;;;;;4997033;28;94497;-72
2023/04/04 05:25:41;;;;;;;;;;;12.30;67.10;;;;;;4993139;28;94142;-71
2023/04/04 05:28:06;;;;;;;;;;;12.20;67.50;;;;;;4993751;28;94269;-71
2023/04/04 05:30:32;;;;;;;;;;;12.20;67.50;;;;;;4990898;28;98992;-73
2023/04/04 05:32:58;;;;;;;;;;;12.20;67.20;;;;;;4996700;28;94899;-72
2023/04/04 05:35:24;;;;;;;;;;;12.30;67.00;;;;;;4985374;28;94240;-71
2023/04/04 05:37:50;;;;;;;;;;;12.30;66.70;;;;;;5002282;28;95093;-73
2023/04/04 05:40:15;;;;;;;;;;;12.30;67.60;;;;;;4996148;28;94740;-73
2023/04/04 05:42:41;;;;;;;;;;;12.30;67.10;;;;;;4993071;28;95915;-74
2023/04/04 05:45:07;;;;;;;;;;;12.30;67.90;;;;;;4996953;28;94543;-74
2023/04/04 05:47:32;;;;;;;;;;;12.30;67.80;;;;;;4998624;28;93956;-71
2023/04/04 05:49:58;;;;;;;;;;;12.20;68.40;;;;;;4996899;28;94357;-72
2023/04/04 05:52:24;;;;;;;;;;;12.20;69.60;;;;;;4994946;28;94200;-72
2023/04/04 05:54:50;;;;;;;;;;;12.20;69.90;;;;;;4998539;28;94103;-74
2023/04/04 05:57:15;;;;;;;;;;;12.30;69.10;;;;;;4982792;28;94493;-71
2023/04/04 05:59:41;;;;;;;;;;;12.30;68.50;;;;;;4998847;28;93649;-72
2023/04/04 06:02:07;;;;;;;;;;;12.30;68.20;;;;;;4996988;28;94419;-71
2023/04/04 06:04:32;;;;;;;;;;;12.20;68.10;;;;;;4994309;28;95066;-73
2023/04/04 06:06:58;;;;;;;;;;;12.20;68.00;;;;;;4999818;28;94701;-71
2023/04/04 06:09:23;;;;;;;;;;;12.20;67.90;;;;;;4997840;28;95047;-72
2023/04/04 06:11:49;;;;;;;;;;;12.20;67.60;;;;;;5002104;28;95757;-69
2023/04/04 06:14:15;;;;;;;;;;;12.30;67.50;;;;;;4992236;28;93847;-72
2023/04/04 06:16:40;;;;;;;;;;;12.20;67.50;;;;;;4983804;28;93843;-72
2023/04/04 06:19:06;;;;;;;;;;;12.20;67.30;;;;;;4994326;28;94282;-70
2023/04/04 06:21:31;;;;;;;;;;;12.20;67.10;;;;;;4997552;28;93786;-76
2023/04/04 06:23:57;;;;;;;;;;;12.20;67.00;;;;;;5000261;28;93777;-73
2023/04/04 06:26:22;;;;;;;;;;;12.30;66.80;;;;;;4978186;28;93917;-73
2023/04/04 06:28:48;;;;;;;;;;;12.20;66.70;;;;;;5002192;28;94457;-71
2023/04/04 06:31:14;;;;;;;;;;;12.30;66.40;;;;;;4995106;28;95663;-72
2023/04/04 06:33:40;;;;;;;;;;;12.20;66.60;;;;;;5004331;28;94139;-70
2023/04/04 06:36:05;;;;;;;;;;;12.20;66.60;;;;;;4995568;28;93965;-72
2023/04/04 06:38:32;;;;;;;;;;;12.20;66.60;;;;;;5000109;28;94958;-71
2023/04/04 06:40:57;;;;;;;;;;;12.20;66.50;;;;;;4983492;28;94387;-73
2023/04/04 06:43:23;;;;;;;;;;;12.30;66.40;;;;;;4992155;28;93659;-73
2023/04/04 06:45:49;;;;;;;;;;;12.30;66.20;;;;;;4995431;28;93728;-73
2023/04/04 06:48:14;;;;;;;;;;;12.30;66.10;;;;;;4996512;28;93657;-71
2023/04/04 06:50:40;;;;;;;;;;;12.40;66.00;;;;;;4982676;28;96001;-72
2023/04/04 06:53:06;;;;;;;;;;;12.40;66.10;;;;;;4995880;28;94673;-71
2023/04/04 06:55:34;;;;;;;;;;;12.40;65.90;;;;;;4995262;28;95830;-72
2023/04/04 06:58:00;;;;;;;;;;;12.30;65.90;;;;;;4999658;28;93729;-71
2023/04/04 07:00:25;;;;;;;;;;;12.40;65.80;;;;;;5004790;28;94126;-71
2023/04/04 07:02:58;;;;;;;;;;;12.40;65.90;;;;;;4999931;28;94382;-75
2023/04/04 07:05:23;;;;;;;;;;;12.40;65.60;;;;;;4998958;28;94297;-72
2023/04/04 07:07:53;;;;;;;;;;;12.40;65.60;;;;;;4998210;28;94837;-72
2023/04/04 07:10:19;;;;;;;;;;;12.40;65.40;;;;;;4996507;28;94143;-72
2023/04/04 07:12:45;;;;;;;;;;;12.40;65.30;;;;;;4995977;28;93547;-71
2023/04/04 07:15:11;;;;;;;;;;;12.40;65.30;;;;;;4998602;28;94075;-71
2023/04/04 07:17:37;;;;;;;;;;;12.40;65.10;;;;;;4999880;28;94438;-70
2023/04/04 07:20:04;;;;;;;;;;;12.40;65.20;;;;;;5001842;28;95482;-73
2023/04/04 07:22:30;;;;;;;;;;;12.40;65.10;;;;;;4998169;28;94232;-71
2023/04/04 07:24:55;;;;;;;;;;;12.40;65.10;;;;;;4999467;28;94381;-72
2023/04/04 07:27:21;;;;;;;;;;;12.40;65.10;;;;;;5000550;28;94238;-72
2023/04/04 07:29:46;;;;;;;;;;;12.40;65.00;;;;;;4986205;28;96043;-72
2023/04/04 07:32:12;;;;;;;;;;;12.50;64.90;;;;;;5002192;28;94850;-73
2023/04/04 07:34:37;;;;;;;;;;;12.50;64.80;;;;;;4998261;28;94182;-73
2023/04/04 07:37:03;;;;;;;;;;;12.50;64.20;;;;;;5001375;28;94537;-72
2023/04/04 07:39:28;;;;;;;;;;;12.50;64.60;;;;;;4997592;28;95165;-69
2023/04/04 07:41:54;;;;;;;;;;;12.50;64.60;;;;;;4999333;28;94208;-73
2023/04/04 07:44:20;;;;;;;;;;;12.60;64.40;;;;;;4993565;28;95882;-72
2023/04/04 07:46:45;;;;;;;;;;;12.50;64.30;;;;;;5003089;28;95514;-72
2023/04/04 07:49:11;;;;;;;;;;;12.60;64.20;;;;;;4999346;28;94400;-72
2023/04/04 07:51:38;;;;;;;;;;;12.60;64.00;;;;;;4996867;28;94282;-72
2023/04/04 07:54:04;;;;;;;;;;;12.60;64.00;;;;;;4998910;28;95161;-74
2023/04/04 07:56:29;;;;;;;;;;;12.60;64.10;;;;;;4998003;28;94925;-72
2023/04/04 07:58:55;;;;;;;;;;;12.60;64.10;;;;;;4997261;28;95026;-73
2023/04/04 08:01:20;;;;;;;;;;;12.70;64.20;;;;;;4981546;28;93755;-73
2023/04/04 08:03:46;;;;;;;;;;;12.60;64.10;;;;;;4997297;28;94331;-72
2023/04/04 08:06:12;;;;;;;;;;;12.70;64.00;;;;;;5001688;28;94393;-71
2023/04/04 08:08:37;;;;;;;;;;;12.70;64.10;;;;;;4998235;28;95441;-72
2023/04/04 08:11:03;;;;;;;;;;;12.70;64.00;;;;;;4980940;28;94694;-73
2023/04/04 08:13:28;;;;;;;;;;;12.70;64.20;;;;;;4996124;28;94621;-72
2023/04/04 08:15:54;;;;;;;;;;;12.70;64.20;;;;;;4997482;28;94958;-72
2023/04/04 08:18:20;;;;;;;;;;;12.80;64.20;;;;;;5003228;28;94483;-69
2023/04/04 08:20:45;;;;;;;;;;;12.80;64.10;;;;;;5002804;28;93758;-73
2023/04/04 08:23:11;;;;;;;;;;;12.80;64.10;;;;;;4997861;28;94266;-73
2023/04/04 08:25:38;;;;;;;;;;;12.70;64.00;;;;;;5000073;28;93973;-72
2023/04/04 08:28:04;;;;;;;;;;;12.80;64.10;;;;;;4997509;28;96486;-73
2023/04/04 08:30:29;;;;;;;;;;;12.80;64.10;;;;;;5000944;28;94568;-72
2023/04/04 08:32:55;;;;;;;;;;;12.90;64.00;;;;;;5001672;28;95538;-72
2023/04/04 08:35:21;;;;;;;;;;;12.80;64.20;;;;;;4992220;28;94305;-72
2023/04/04 08:37:46;;;;;;;;;;;12.80;64.20;;;;;;4997056;28;94433;-72
2023/04/04 08:40:12;;;;;;;;;;;12.80;64.20;;;;;;4983602;28;95006;-71
2023/04/04 08:42:39;;;;;;;;;;;12.80;64.30;;;;;;4995054;28;94597;-74
2023/04/04 08:45:06;;;;;;;;;;;12.80;64.20;;;;;;5000825;28;94475;-71
2023/04/04 08:47:34;;;;;;;;;;;12.80;64.30;;;;;;5000874;28;94623;-72
2023/04/04 08:50:01;;;;;;;;;;;12.80;64.30;;;;;;4997398;28;93424;-72
2023/04/04 08:52:27;;;;;;;;;;;12.90;64.30;;;;;;4997951;28;94483;-72
2023/04/04 08:54:54;;;;;;;;;;;12.90;64.10;;;;;;4999065;28;93889;-72
2023/04/04 08:57:19;;;;;;;;;;;13.00;64.00;;;;;;5001418;28;95586;-72
2023/04/04 08:59:46;;;;;;;;;;;13.00;63.90;;;;;;4995840;28;94520;-73
2023/04/04 09:02:21;;;;;;;;;;;13.00;64.00;;;;;;4996871;28;94891;-72
2023/04/04 09:04:47;;;;;;;;;;;13.00;63.90;;;;;;4996497;28;95620;-72
2023/04/04 09:07:14;;;;;;;;;;;13.00;64.00;;;;;;4996195;28;96024;-70
2023/04/04 09:09:43;;;;;;;;;;;13.10;64.10;;;;;;4999865;28;94751;-74
2023/04/04 09:12:09;;;;;;;;;;;13.10;63.80;;;;;;4993644;28;94476;-70
2023/04/04 09:14:36;;;;;;;;;;;13.10;63.80;;;;;;4995124;28;93172;-71
2023/04/04 09:17:02;;;;;;;;;;;13.10;63.80;;;;;;4993491;28;94652;-73
2023/04/04 09:19:27;;;;;;;;;;;13.20;63.70;;;;;;4998128;28;94361;-74
2023/04/04 09:21:53;;;;;;;;;;;13.10;63.80;;;;;;4996627;28;95443;-73
2023/04/04 09:24:19;;;;;;;;;;;13.10;63.90;;;;;;4999643;28;94197;-72
2023/04/04 09:26:49;;;;;;;;;;;13.20;63.90;;;;;;5000522;28;94858;-71
2023/04/04 09:29:19;;;;;;;;;;;13.20;63.70;;;;;;4997001;28;94391;-71
2023/04/04 09:31:45;;;;;;;;;;;13.30;64.00;;;;;;4997982;28;94361;-71
2023/04/04 09:34:20;;;;;;;;;;;13.30;63.80;;;;;;4996820;28;94554;-72
2023/04/04 09:36:45;;;;;;;;;;;13.30;63.80;;;;;;4998896;28;94202;-72
2023/04/04 09:39:12;;;;;;;;;;;13.30;63.80;;;;;;4999350;28;93767;-71
2023/04/04 09:41:39;;;;;;;;;;;13.40;63.80;;;;;;4994296;28;95134;-72
2023/04/04 09:44:06;;;;;;;;;;;13.30;63.50;;;;;;4997088;28;95494;-73
2023/04/04 09:46:32;;;;;;;;;;;13.40;63.90;;;;;;5000451;28;95526;-72
2023/04/04 09:48:59;;;;;;;;;;;13.40;63.80;;;;;;4982078;28;95366;-71
2023/04/04 09:51:32;;;;;;;;;;;13.50;63.90;;;;;;4981400;28;94458;-74
2023/04/04 09:53:57;;;;;;;;;;;13.40;63.60;;;;;;4997593;28;94219;-72
2023/04/04 09:56:23;;;;;;;;;;;13.50;63.70;;;;;;4995817;28;94583;-74
2023/04/04 09:58:48;;;;;;;;;;;13.50;63.80;;;;;;4995800;28;94474;-72
2023/04/04 10:01:14;;;;;;;;;;;13.50;63.50;;;;;;4999982;28;94452;-71
2023/04/04 10:03:39;;;;;;;;;;;13.60;63.70;;;;;;5003394;28;94189;-73
2023/04/04 10:06:05;;;;;;;;;;;13.60;63.70;;;;;;4997840;28;95173;-72
2023/04/04 10:08:31;;;;;;;;;;;13.60;63.60;;;;;;4992848;28;94578;-73
2023/04/04 10:10:57;;;;;;;;;;;13.60;63.50;;;;;;4979747;28;95700;-74
2023/04/04 10:13:23;;;;;;;;;;;13.60;63.60;;;;;;4997116;28;94599;-73
2023/04/04 10:15:50;;;;;;;;;;;13.60;63.80;;;;;;4997022;28;95098;-72
2023/04/04 10:18:17;;;;;;;;;;;13.60;63.20;;;;;;4995667;28;94924;-70
2023/04/04 10:20:43;;;;;;;;;;;13.70;63.50;;;;;;4996862;28;94530;-69
2023/04/04 10:23:08;;;;;;;;;;;13.80;63.50;;;;;;5000292;28;94542;-71
2023/04/04 10:25:35;;;;;;;;;;;13.70;63.40;;;;;;4991945;28;94951;-71
2023/04/04 10:28:01;;;;;;;;;;;13.80;63.40;;;;;;4976292;28;94692;-72
2023/04/04 10:30:26;;;;;;;;;;;13.80;63.20;;;;;;5001532;28;93868;-71
2023/04/04 10:32:57;;;;;;;;;;;13.90;63.20;;;;;;4999719;28;94571;-71
2023/04/04 10:35:23;;;;;;;;;;;13.90;63.20;;;;;;4999214;28;95958;-72
2023/04/04 10:37:51;;;;;;;;;;;13.90;63.10;;;;;;5001207;28;95620;-70
2023/04/04 10:40:18;;;;;;;;;;;13.90;63.20;;;;;;5000017;28;94222;-72
2023/04/04 10:42:45;;;;;;;;;;;13.90;63.10;;;;;;4996328;28;94810;-73
2023/04/04 10:45:12;;;;;;;;;;;14.00;63.30;;;;;;4999720;28;95712;-72
2023/04/04 10:47:38;;;;;;;;;;;14.00;63.10;;;;;;4994566;28;95715;-73
2023/04/04 10:50:06;;;;;;;;;;;14.00;63.00;;;;;;4998881;28;94688;-72
2023/04/04 10:52:32;;;;;;;;;;;14.10;63.10;;;;;;4997974;28;93942;-74
2023/04/04 10:55:01;;;;;;;;;;;14.00;62.90;;;;;;4986696;28;97302;-72
2023/04/04 10:57:27;;;;;;;;;;;14.00;62.90;;;;;;5000640;28;95097;-73
2023/04/04 11:00:07;;;;;;;;;;;14.10;63.10;;;;;;4998616;28;95539;-73
2023/04/04 11:02:43;;;;;;;;;;;14.10;63.00;;;;;;4998939;28;94632;-72
2023/04/04 11:05:16;;;;;;;;;;;14.10;62.80;;;;;;4983856;28;96504;-71
2023/04/04 11:07:43;;;;;;;;;;;14.10;62.90;;;;;;4996527;28;94558;-71
2023/04/04 11:10:20;;;;;;;;;;;14.20;62.70;;;;;;4996606;28;94569;-71
2023/04/04 11:12:46;;;;;;;;;;;14.20;62.80;;;;;;4981929;28;94588;-72
2023/04/04 11:15:13;;;;;;;;;;;14.30;62.90;;;;;;5002527;28;94575;-71
2023/04/04 11:17:47;;;;;;;;;;;14.30;62.70;;;;;;4982320;28;94388;-72
2023/04/04 11:20:20;;;;;;;;;;;14.20;62.60;;;;;;4997957;28;94382;-70
2023/04/04 11:22:48;;;;;;;;;;;14.30;62.70;;;;;;5002774;28;94503;-72
2023/04/04 11:25:26;;;;;;;;;;;14.30;62.80;;;;;;5001029;28;96657;-71
2023/04/04 11:27:57;;;;;;;;;;;14.30;62.60;;;;;;5001498;28;94759;-71
2023/04/04 11:30:27;;;;;;;;;;;14.30;62.50;;;;;;5000723;28;95007;-72
2023/04/04 11:32:56;;;;;;;;;;;14.40;62.60;;;;;;4999503;28;95141;-72
2023/04/04 11:35:21;;;;;;;;;;;14.40;62.50;;;;;;4985277;28;96129;-72
2023/04/04 11:37:51;;;;;;;;;;;14.50;62.50;;;;;;4995619;28;95745;-72
2023/04/04 11:40:17;;;;;;;;;;;14.50;62.40;;;;;;4996955;28;94556;-69
2023/04/04 11:42:42;;;;;;;;;;;14.50;62.50;;;;;;4982960;28;94184;-73
2023/04/04 11:45:11;;;;;;;;;;;14.50;62.30;;;;;;4996682;28;94625;-72
2023/04/04 11:47:38;;;;;;;;;;;14.60;62.20;;;;;;5006532;28;94872;-72
2023/04/04 11:50:07;;;;;;;;;;;14.60;62.10;;;;;;4999081;28;95499;-73
2023/04/04 11:52:37;;;;;;;;;;;14.60;62.10;;;;;;5000230;27;96400;-72
2023/04/04 11:55:13;;;;;;;;;;;14.60;61.90;;;;;;4998543;28;94668;-72
2023/04/04 11:57:40;;;;;;;;;;;14.70;61.80;;;;;;4995252;28;96337;-73
2023/04/04 12:00:07;;;;;;;;;;;14.70;61.40;;;;;;4997177;28;95350;-75
2023/04/04 12:02:34;;;;;;;;;;;14.70;61.20;;;;;;4997646;28;94558;-75
2023/04/04 12:04:59;;;;;;;;;;;14.80;61.30;;;;;;4987147;28;95750;-76
2023/04/04 12:07:25;;;;;;;;;;;14.80;61.20;;;;;;4974013;28;97214;-74
2023/04/04 12:09:51;;;;;;;;;;;14.80;61.20;;;;;;4992905;28;95096;-74
2023/04/04 12:12:17;;;;;;;;;;;14.70;61.60;;;;;;4996521;28;94745;-72
2023/04/04 12:14:42;;;;;;;;;;;14.80;61.70;;;;;;4980223;28;96288;-76
2023/04/04 12:17:08;;;;;;;;;;;14.70;61.90;;;;;;4992784;28;96820;-73
2023/04/04 12:19:37;;;;;;;;;;;14.70;62.10;;;;;;4998535;28;94579;-74
2023/04/04 12:22:03;;;;;;;;;;;14.70;62.30;;;;;;4998814;28;94410;-75
2023/04/04 12:24:29;;;;;;;;;;;14.80;62.70;;;;;;4988547;28;94559;-75
2023/04/04 12:26:57;;;;;;;;;;;14.80;62.40;;;;;;4996201;28;95141;-76
2023/04/04 12:29:24;;;;;;;;;;;14.80;62.80;;;;;;4996272;28;95325;-75
2023/04/04 12:31:51;;;;;;;;;;;14.80;62.60;;;;;;4992884;28;93977;-75
2023/04/04 12:34:17;;;;;;;;;;;14.90;63.00;;;;;;4994788;28;94948;-72
2023/04/04 12:36:42;;;;;;;;;;;14.90;63.10;;;;;;4995007;28;94646;-74
2023/04/04 12:39:10;;;;;;;;;;;14.90;63.10;;;;;;4993491;28;96467;-74
2023/04/04 12:41:46;;;;;;;;;;;14.90;63.10;;;;;;4996507;28;95785;-73
2023/04/04 12:44:25;;;;;;;;;;;14.90;63.10;;;;;;4977815;28;97307;-75
2023/04/04 12:46:50;;;;;;;;;;;14.90;63.00;;;;;;4995722;28;94638;-77
2023/04/04 12:49:20;;;;;;;;;;;15.00;63.10;;;;;;4992679;28;95112;-72
2023/04/04 12:51:45;;;;;;;;;;;15.00;63.20;;;;;;4977867;28;94978;-72
2023/04/04 12:54:24;;;;;;;;;;;15.00;63.20;;;;;;4990860;28;94892;-74
2023/04/04 12:56:53;;;;;;;;;;;15.00;63.30;;;;;;4992750;28;94067;-76
2023/04/04 12:59:20;;;;;;;;;;;15.10;63.40;;;;;;4990177;28;95255;-79
2023/04/04 13:01:46;;;;;;;;;;;15.10;62.90;;;;;;4979634;28;94854;-74
2023/04/04 13:04:16;;;;;;;;;;;15.10;63.20;;;;;;4995872;28;96170;-71
2023/04/04 13:06:46;;;;;;;;;;;15.20;63.10;;;;;;4998284;28;94950;-72
2023/04/04 13:09:19;;;;;;;;;;;15.20;62.70;;;;;;4992882;28;94592;-71
2023/04/04 13:12:11;;;;;;;;;;;15.30;62.70;;;;;;4999481;28;95632;-73
2023/04/04 13:14:55;;;;;;;;;;;15.30;62.50;;;;;;4992550;28;95037;-72
2023/04/04 13:17:20;;;;;;;;;;;15.30;62.30;;;;;;4995724;28;94665;-73
2023/04/04 13:19:46;;;;;;;;;;;15.40;62.30;;;;;;4996394;28;95412;-71
2023/04/04 13:22:12;;;;;;;;;;;15.40;62.10;;;;;;4997885;28;94627;-71
2023/04/04 13:24:37;;;;;;;;;;;15.40;62.20;;;;;;5001034;28;94992;-72
2023/04/04 13:27:03;;;;;;;;;;;15.50;62.10;;;;;;4997183;28;98054;-71
2023/04/04 13:29:28;;;;;;;;;;;15.50;62.10;;;;;;4995899;28;96065;-75
2023/04/04 13:31:54;;;;;;;;;;;15.50;61.90;;;;;;4998868;28;94716;-77
2023/04/04 13:34:20;;;;;;;;;;;15.50;62.10;;;;;;4982303;28;98283;-75
2023/04/04 13:36:46;;;;;;;;;;;15.60;62.30;;;;;;4997983;28;95766;-75
2023/04/04 13:39:11;;;;;;;;;;;15.60;62.30;;;;;;4981028;28;94604;-75
2023/04/04 13:41:37;;;;;;;;;;;15.60;62.50;;;;;;4997155;28;94797;-75
2023/04/04 13:44:02;;;;;;;;;;;15.60;62.60;;;;;;4997922;28;94569;-75
2023/04/04 13:46:28;;;;;;;;;;;15.70;63.60;;;;;;4982668;28;95566;-76
2023/04/04 13:48:53;;;;;;;;;;;15.70;64.10;;;;;;4986155;28;94577;-73
2023/04/04 13:51:19;;;;;;;;;;;15.70;63.70;;;;;;4991216;28;100048;-72
2023/04/04 13:53:45;;;;;;;;;;;15.70;63.30;;;;;;4983691;28;96197;-71
2023/04/04 13:56:10;;;;;;;;;;;15.70;62.80;;;;;;4997864;28;96656;-73
2023/04/04 13:58:35;;;;;;;;;;;15.60;63.20;;;;;;5012742;28;94713;-71
2023/04/04 14:01:03;;;;;;;;;;;15.60;63.10;;;;;;5013475;27;94938;-72
2023/04/04 14:03:29;;;;;;;;;;;15.60;63.20;;;;;;5011217;27;94691;-71
2023/04/04 14:05:54;;;;;;;;;;;15.60;63.40;;;;;;5011476;28;94861;-71
2023/04/04 14:08:20;;;;;;;;;;;15.60;63.20;;;;;;5016537;27;94924;-74
2023/04/04 14:10:45;;;;;;;;;;;15.60;63.20;;;;;;5020731;27;94120;-72
2023/04/04 14:13:11;;;;;;;;;;;15.60;63.30;;;;;;5006103;28;96026;-72